sensor_id;sensor_type;location;lat;lon;timestamp;P1;durP1;ratioP1;P2;durP2;ratioP2
24411;SDS011;12544;46.760;15.942;2023-02-04T00:01:48;1.38;;;1.00;;
24411;SDS011;12544;46.760;15.942;2023-02-04T00:04:14;1.48;;;1.00;;
24411;SDS011;12544;46.760;15.942;2023-02-04T00:06:39;0.90;;;0.80;;
24411;SDS011;12544;46.760;15.942;2023-02-04T00:09:05;0.73;;;0.70;;
24411;SDS011;12544;46.760;15.942;2023-02-04T00:11:31;1.35;;;0.80;;
24411;SDS011;12544;46.760;15.942;2023-02-04T00:13:57;0.80;;;0.70;;
24411;SDS011;12544;46.760;15.942;2023-02-04T00:16:22;2.03;;;0.90;;
24411;SDS011;12544;46.760;15.942;2023-02-04T00:18:48;1.52;;;0.70;;
24411;SDS011;12544;46.760;15.942;2023-02-04T00:21:14;1.60;;;0.90;;
24411;SDS011;12544;46.760;15.942;2023-02-04T00:23:40;0.55;;;0.50;;
24411;SDS011;12544;46.760;15.942;2023-02-04T00:26:06;3.15;;;2.28;;
24411;SDS011;12544;46.760;15.942;2023-02-04T00:28:32;2.35;;;1.80;;
24411;SDS011;12544;46.760;15.942;2023-02-04T00:30:58;2.08;;;1.80;;
24411;SDS011;12544;46.760;15.942;2023-02-04T00:33:24;1.48;;;0.95;;
24411;SDS011;12544;46.760;15.942;2023-02-04T00:35:49;1.90;;;1.05;;
24411;SDS011;12544;46.760;15.942;2023-02-04T00:38:15;1.80;;;1.08;;
24411;SDS011;12544;46.760;15.942;2023-02-04T00:43:19;1.60;;;1.00;;
24411;SDS011;12544;46.760;15.942;2023-02-04T00:45:44;1.35;;;1.02;;
24411;SDS011;12544;46.760;15.942;2023-02-04T00:48:10;0.77;;;0.70;;
24411;SDS011;12544;46.760;15.942;2023-02-04T00:50:36;1.13;;;0.80;;
24411;SDS011;12544;46.760;15.942;2023-02-04T00:53:04;0.55;;;0.50;;
24411;SDS011;12544;46.760;15.942;2023-02-04T00:55:30;0.85;;;0.50;;
24411;SDS011;12544;46.760;15.942;2023-02-04T00:57:56;0.85;;;0.50;;
24411;SDS011;12544;46.760;15.942;2023-02-04T01:00:21;0.75;;;0.65;;
24411;SDS011;12544;46.760;15.942;2023-02-04T01:02:47;0.60;;;0.60;;
24411;SDS011;12544;46.760;15.942;2023-02-04T01:05:12;0.63;;;0.47;;
24411;SDS011;12544;46.760;15.942;2023-02-04T01:07:38;0.98;;;0.55;;
24411;SDS011;12544;46.760;15.942;2023-02-04T01:10:04;1.30;;;0.80;;
24411;SDS011;12544;46.760;15.942;2023-02-04T01:12:39;0.95;;;0.90;;
24411;SDS011;12544;46.760;15.942;2023-02-04T01:15:05;0.90;;;0.70;;
24411;SDS011;12544;46.760;15.942;2023-02-04T01:17:30;2.58;;;0.57;;
24411;SDS011;12544;46.760;15.942;2023-02-04T01:19:57;0.47;;;0.40;;
24411;SDS011;12544;46.760;15.942;2023-02-04T01:22:35;0.65;;;0.50;;
24411;SDS011;12544;46.760;15.942;2023-02-04T01:25:00;0.90;;;0.50;;
24411;SDS011;12544;46.760;15.942;2023-02-04T01:27:26;0.40;;;0.32;;
24411;SDS011;12544;46.760;15.942;2023-02-04T01:29:52;1.58;;;0.50;;
24411;SDS011;12544;46.760;15.942;2023-02-04T01:32:17;0.68;;;0.40;;
24411;SDS011;12544;46.760;15.942;2023-02-04T01:34:43;0.60;;;0.45;;
24411;SDS011;12544;46.760;15.942;2023-02-04T01:37:14;0.55;;;0.40;;
24411;SDS011;12544;46.760;15.942;2023-02-04T01:39:39;0.45;;;0.43;;
24411;SDS011;12544;46.760;15.942;2023-02-04T01:42:05;0.40;;;0.30;;
24411;SDS011;12544;46.760;15.942;2023-02-04T01:44:31;0.40;;;0.38;;
24411;SDS011;12544;46.760;15.942;2023-02-04T01:46:57;0.90;;;0.50;;
24411;SDS011;12544;46.760;15.942;2023-02-04T01:49:23;0.50;;;0.40;;
24411;SDS011;12544;46.760;15.942;2023-02-04T01:51:49;0.80;;;0.40;;
24411;SDS011;12544;46.760;15.942;2023-02-04T01:54:14;0.52;;;0.32;;
24411;SDS011;12544;46.760;15.942;2023-02-04T01:56:43;1.17;;;0.60;;
24411;SDS011;12544;46.760;15.942;2023-02-04T01:59:12;0.40;;;0.40;;
24411;SDS011;12544;46.760;15.942;2023-02-04T02:01:42;0.47;;;0.47;;
24411;SDS011;12544;46.760;15.942;2023-02-04T02:04:14;0.57;;;0.40;;
24411;SDS011;12544;46.760;15.942;2023-02-04T02:09:17;1.10;;;0.47;;
24411;SDS011;12544;46.760;15.942;2023-02-04T02:11:44;0.50;;;0.40;;
24411;SDS011;12544;46.760;15.942;2023-02-04T02:14:10;0.32;;;0.32;;
24411;SDS011;12544;46.760;15.942;2023-02-04T02:16:37;0.63;;;0.43;;
24411;SDS011;12544;46.760;15.942;2023-02-04T02:19:03;1.67;;;1.02;;
24411;SDS011;12544;46.760;15.942;2023-02-04T02:21:35;0.60;;;0.50;;
24411;SDS011;12544;46.760;15.942;2023-02-04T02:24:22;0.68;;;0.50;;
24411;SDS011;12544;46.760;15.942;2023-02-04T02:26:50;0.43;;;0.40;;
24411;SDS011;12544;46.760;15.942;2023-02-04T02:29:16;0.43;;;0.30;;
24411;SDS011;12544;46.760;15.942;2023-02-04T02:31:42;0.30;;;0.30;;
24411;SDS011;12544;46.760;15.942;2023-02-04T02:34:08;0.85;;;0.60;;
24411;SDS011;12544;46.760;15.942;2023-02-04T02:36:34;0.30;;;0.30;;
24411;SDS011;12544;46.760;15.942;2023-02-04T02:38:59;2.42;;;0.75;;
24411;SDS011;12544;46.760;15.942;2023-02-04T02:41:25;0.43;;;0.20;;
24411;SDS011;12544;46.760;15.942;2023-02-04T02:43:51;0.10;;;0.10;;
24411;SDS011;12544;46.760;15.942;2023-02-04T02:46:16;0.20;;;0.20;;
24411;SDS011;12544;46.760;15.942;2023-02-04T02:48:42;0.30;;;0.30;;
24411;SDS011;12544;46.760;15.942;2023-02-04T02:51:08;0.10;;;0.10;;
24411;SDS011;12544;46.760;15.942;2023-02-04T02:53:33;0.10;;;0.10;;
24411;SDS011;12544;46.760;15.942;2023-02-04T02:55:59;0.15;;;0.15;;
24411;SDS011;12544;46.760;15.942;2023-02-04T02:58:29;0.17;;;0.17;;
24411;SDS011;12544;46.760;15.942;2023-02-04T03:00:57;0.30;;;0.20;;
24411;SDS011;12544;46.760;15.942;2023-02-04T03:03:25;0.10;;;0.10;;
24411;SDS011;12544;46.760;15.942;2023-02-04T03:05:59;0.20;;;0.20;;
24411;SDS011;12544;46.760;15.942;2023-02-04T03:08:30;0.30;;;0.10;;
24411;SDS011;12544;46.760;15.942;2023-02-04T03:10:56;0.15;;;0.15;;
24411;SDS011;12544;46.760;15.942;2023-02-04T03:13:22;0.80;;;0.20;;
24411;SDS011;12544;46.760;15.942;2023-02-04T03:15:48;0.15;;;0.15;;
24411;SDS011;12544;46.760;15.942;2023-02-04T03:18:14;0.20;;;0.20;;
24411;SDS011;12544;46.760;15.942;2023-02-04T03:20:41;0.20;;;0.17;;
24411;SDS011;12544;46.760;15.942;2023-02-04T03:23:07;0.10;;;0.10;;
24411;SDS011;12544;46.760;15.942;2023-02-04T03:25:33;0.10;;;0.10;;
24411;SDS011;12544;46.760;15.942;2023-02-04T03:27:59;0.10;;;0.10;;
24411;SDS011;12544;46.760;15.942;2023-02-04T03:30:25;0.13;;;0.13;;
24411;SDS011;12544;46.760;15.942;2023-02-04T03:32:51;1.02;;;0.15;;
24411;SDS011;12544;46.760;15.942;2023-02-04T03:35:17;0.30;;;0.20;;
24411;SDS011;12544;46.760;15.942;2023-02-04T03:37:43;0.10;;;0.10;;
24411;SDS011;12544;46.760;15.942;2023-02-04T03:40:09;0.60;;;0.17;;
24411;SDS011;12544;46.760;15.942;2023-02-04T03:42:36;0.20;;;0.20;;
24411;SDS011;12544;46.760;15.942;2023-02-04T03:45:01;0.10;;;0.10;;
24411;SDS011;12544;46.760;15.942;2023-02-04T03:47:27;0.20;;;0.20;;
24411;SDS011;12544;46.760;15.942;2023-02-04T03:49:53;0.20;;;0.20;;
24411;SDS011;12544;46.760;15.942;2023-02-04T03:52:19;0.20;;;0.20;;
24411;SDS011;12544;46.760;15.942;2023-02-04T03:54:44;0.20;;;0.20;;
24411;SDS011;12544;46.760;15.942;2023-02-04T03:57:10;0.10;;;0.10;;
24411;SDS011;12544;46.760;15.942;2023-02-04T03:59:36;0.10;;;0.10;;
24411;SDS011;12544;46.760;15.942;2023-02-04T04:02:02;0.10;;;0.10;;
24411;SDS011;12544;46.760;15.942;2023-02-04T04:04:28;0.32;;;0.10;;
24411;SDS011;12544;46.760;15.942;2023-02-04T04:06:53;0.10;;;0.10;;
24411;SDS011;12544;46.760;15.942;2023-02-04T04:09:19;0.10;;;0.10;;
24411;SDS011;12544;46.760;15.942;2023-02-04T04:11:45;0.10;;;0.10;;
24411;SDS011;12544;46.760;15.942;2023-02-04T04:14:12;0.20;;;0.20;;
24411;SDS011;12544;46.760;15.942;2023-02-04T04:16:38;0.10;;;0.10;;
24411;SDS011;12544;46.760;15.942;2023-02-04T04:19:04;0.20;;;0.10;;
24411;SDS011;12544;46.760;15.942;2023-02-04T04:21:29;0.17;;;0.17;;
24411;SDS011;12544;46.760;15.942;2023-02-04T04:23:55;0.10;;;0.10;;
24411;SDS011;12544;46.760;15.942;2023-02-04T04:26:21;0.30;;;0.30;;
24411;SDS011;12544;46.760;15.942;2023-02-04T04:28:47;0.28;;;0.17;;
24411;SDS011;12544;46.760;15.942;2023-02-04T04:31:13;0.35;;;0.10;;
24411;SDS011;12544;46.760;15.942;2023-02-04T04:33:39;0.20;;;0.10;;
24411;SDS011;12544;46.760;15.942;2023-02-04T04:36:05;0.20;;;0.20;;
24411;SDS011;12544;46.760;15.942;2023-02-04T04:38:31;0.10;;;0.10;;
24411;SDS011;12544;46.760;15.942;2023-02-04T04:40:57;0.20;;;0.20;;
24411;SDS011;12544;46.760;15.942;2023-02-04T04:43:22;0.32;;;0.20;;
24411;SDS011;12544;46.760;15.942;2023-02-04T04:45:48;0.30;;;0.20;;
24411;SDS011;12544;46.760;15.942;2023-02-04T04:48:13;0.17;;;0.17;;
24411;SDS011;12544;46.760;15.942;2023-02-04T04:50:39;0.20;;;0.20;;
24411;SDS011;12544;46.760;15.942;2023-02-04T04:53:05;1.55;;;0.57;;
24411;SDS011;12544;46.760;15.942;2023-02-04T04:55:35;0.10;;;0.10;;
24411;SDS011;12544;46.760;15.942;2023-02-04T04:58:01;0.10;;;0.10;;
24411;SDS011;12544;46.760;15.942;2023-02-04T05:00:26;0.80;;;0.20;;
24411;SDS011;12544;46.760;15.942;2023-02-04T05:02:52;0.17;;;0.10;;
24411;SDS011;12544;46.760;15.942;2023-02-04T05:05:18;0.22;;;0.20;;
24411;SDS011;12544;46.760;15.942;2023-02-04T05:07:43;0.28;;;0.10;;
24411;SDS011;12544;46.760;15.942;2023-02-04T05:10:09;0.10;;;0.10;;
24411;SDS011;12544;46.760;15.942;2023-02-04T05:12:34;0.10;;;0.10;;
24411;SDS011;12544;46.760;15.942;2023-02-04T05:15:00;0.22;;;0.10;;
24411;SDS011;12544;46.760;15.942;2023-02-04T05:17:26;0.20;;;0.20;;
24411;SDS011;12544;46.760;15.942;2023-02-04T05:19:51;0.25;;;0.20;;
24411;SDS011;12544;46.760;15.942;2023-02-04T05:22:17;0.20;;;0.20;;
24411;SDS011;12544;46.760;15.942;2023-02-04T05:24:43;0.55;;;0.20;;
24411;SDS011;12544;46.760;15.942;2023-02-04T05:27:08;0.20;;;0.20;;
24411;SDS011;12544;46.760;15.942;2023-02-04T05:29:34;0.13;;;0.13;;
24411;SDS011;12544;46.760;15.942;2023-02-04T05:31:59;0.10;;;0.10;;
24411;SDS011;12544;46.760;15.942;2023-02-04T05:34:26;0.20;;;0.20;;
24411;SDS011;12544;46.760;15.942;2023-02-04T05:36:51;0.25;;;0.20;;
24411;SDS011;12544;46.760;15.942;2023-02-04T05:39:17;0.80;;;0.40;;
24411;SDS011;12544;46.760;15.942;2023-02-04T05:41:43;0.20;;;0.20;;
24411;SDS011;12544;46.760;15.942;2023-02-04T05:44:08;0.82;;;0.30;;
24411;SDS011;12544;46.760;15.942;2023-02-04T05:46:34;0.30;;;0.30;;
24411;SDS011;12544;46.760;15.942;2023-02-04T05:49:00;0.60;;;0.30;;
24411;SDS011;12544;46.760;15.942;2023-02-04T05:51:26;0.20;;;0.20;;
24411;SDS011;12544;46.760;15.942;2023-02-04T05:53:51;0.20;;;0.10;;
24411;SDS011;12544;46.760;15.942;2023-02-04T05:56:17;0.20;;;0.20;;
24411;SDS011;12544;46.760;15.942;2023-02-04T05:58:42;0.20;;;0.20;;
24411;SDS011;12544;46.760;15.942;2023-02-04T06:01:08;0.35;;;0.10;;
24411;SDS011;12544;46.760;15.942;2023-02-04T06:03:34;0.10;;;0.10;;
24411;SDS011;12544;46.760;15.942;2023-02-04T06:05:59;1.63;;;0.30;;
24411;SDS011;12544;46.760;15.942;2023-02-04T06:08:25;0.20;;;0.15;;
24411;SDS011;12544;46.760;15.942;2023-02-04T06:10:50;0.82;;;0.20;;
24411;SDS011;12544;46.760;15.942;2023-02-04T06:13:16;0.30;;;0.20;;
24411;SDS011;12544;46.760;15.942;2023-02-04T06:15:42;0.20;;;0.20;;
24411;SDS011;12544;46.760;15.942;2023-02-04T06:18:07;0.25;;;0.25;;
24411;SDS011;12544;46.760;15.942;2023-02-04T06:20:33;0.30;;;0.20;;
24411;SDS011;12544;46.760;15.942;2023-02-04T06:22:59;0.20;;;0.20;;
24411;SDS011;12544;46.760;15.942;2023-02-04T06:25:24;0.32;;;0.20;;
24411;SDS011;12544;46.760;15.942;2023-02-04T06:27:50;0.32;;;0.22;;
24411;SDS011;12544;46.760;15.942;2023-02-04T06:30:16;0.20;;;0.20;;
24411;SDS011;12544;46.760;15.942;2023-02-04T06:32:42;0.28;;;0.20;;
24411;SDS011;12544;46.760;15.942;2023-02-04T06:35:08;0.20;;;0.20;;
24411;SDS011;12544;46.760;15.942;2023-02-04T06:37:34;0.20;;;0.20;;
24411;SDS011;12544;46.760;15.942;2023-02-04T06:40:00;0.20;;;0.20;;
24411;SDS011;12544;46.760;15.942;2023-02-04T06:42:25;0.20;;;0.20;;
24411;SDS011;12544;46.760;15.942;2023-02-04T06:44:52;0.30;;;0.30;;
24411;SDS011;12544;46.760;15.942;2023-02-04T06:47:17;0.50;;;0.13;;
24411;SDS011;12544;46.760;15.942;2023-02-04T06:49:44;0.20;;;0.17;;
24411;SDS011;12544;46.760;15.942;2023-02-04T06:52:09;0.20;;;0.20;;
24411;SDS011;12544;46.760;15.942;2023-02-04T06:54:36;0.30;;;0.20;;
24411;SDS011;12544;46.760;15.942;2023-02-04T06:57:04;0.20;;;0.20;;
24411;SDS011;12544;46.760;15.942;2023-02-04T06:59:36;0.60;;;0.20;;
24411;SDS011;12544;46.760;15.942;2023-02-04T07:02:03;0.30;;;0.30;;
24411;SDS011;12544;46.760;15.942;2023-02-04T07:06:59;0.65;;;0.30;;
24411;SDS011;12544;46.760;15.942;2023-02-04T07:09:25;0.20;;;0.20;;
24411;SDS011;12544;46.760;15.942;2023-02-04T07:11:51;0.65;;;0.40;;
24411;SDS011;12544;46.760;15.942;2023-02-04T07:14:17;0.25;;;0.25;;
24411;SDS011;12544;46.760;15.942;2023-02-04T07:16:43;0.40;;;0.32;;
24411;SDS011;12544;46.760;15.942;2023-02-04T07:19:09;1.63;;;0.30;;
24411;SDS011;12544;46.760;15.942;2023-02-04T07:21:43;0.40;;;0.30;;
24411;SDS011;12544;46.760;15.942;2023-02-04T07:24:08;0.30;;;0.20;;
24411;SDS011;12544;46.760;15.942;2023-02-04T07:26:34;0.20;;;0.20;;
24411;SDS011;12544;46.760;15.942;2023-02-04T07:28:59;0.40;;;0.40;;
24411;SDS011;12544;46.760;15.942;2023-02-04T07:31:25;0.20;;;0.20;;
24411;SDS011;12544;46.760;15.942;2023-02-04T07:33:51;0.35;;;0.20;;
24411;SDS011;12544;46.760;15.942;2023-02-04T07:36:16;1.27;;;0.25;;
24411;SDS011;12544;46.760;15.942;2023-02-04T07:38:42;0.40;;;0.40;;
24411;SDS011;12544;46.760;15.942;2023-02-04T07:41:07;0.50;;;0.50;;
24411;SDS011;12544;46.760;15.942;2023-02-04T07:43:33;0.85;;;0.40;;
24411;SDS011;12544;46.760;15.942;2023-02-04T07:45:58;0.85;;;0.47;;
24411;SDS011;12544;46.760;15.942;2023-02-04T07:48:24;0.60;;;0.60;;
24411;SDS011;12544;46.760;15.942;2023-02-04T07:50:50;0.60;;;0.32;;
24411;SDS011;12544;46.760;15.942;2023-02-04T07:53:15;2.72;;;0.95;;
24411;SDS011;12544;46.760;15.942;2023-02-04T07:55:41;1.25;;;0.70;;
24411;SDS011;12544;46.760;15.942;2023-02-04T07:58:07;3.72;;;2.15;;
24411;SDS011;12544;46.760;15.942;2023-02-04T08:00:33;2.72;;;1.35;;
24411;SDS011;12544;46.760;15.942;2023-02-04T08:02:58;2.85;;;1.27;;
24411;SDS011;12544;46.760;15.942;2023-02-04T08:05:25;1.95;;;1.58;;
24411;SDS011;12544;46.760;15.942;2023-02-04T08:07:51;3.92;;;2.08;;
24411;SDS011;12544;46.760;15.942;2023-02-04T08:10:16;1.13;;;0.90;;
24411;SDS011;12544;46.760;15.942;2023-02-04T08:12:42;1.25;;;0.80;;
24411;SDS011;12544;46.760;15.942;2023-02-04T08:15:08;1.15;;;0.80;;
24411;SDS011;12544;46.760;15.942;2023-02-04T08:17:34;0.57;;;0.50;;
24411;SDS011;12544;46.760;15.942;2023-02-04T08:19:59;0.65;;;0.52;;
24411;SDS011;12544;46.760;15.942;2023-02-04T08:22:25;0.60;;;0.40;;
24411;SDS011;12544;46.760;15.942;2023-02-04T08:24:51;0.40;;;0.40;;
24411;SDS011;12544;46.760;15.942;2023-02-04T08:27:16;1.00;;;0.30;;
24411;SDS011;12544;46.760;15.942;2023-02-04T08:29:42;0.77;;;0.40;;
24411;SDS011;12544;46.760;15.942;2023-02-04T08:32:08;0.35;;;0.25;;
24411;SDS011;12544;46.760;15.942;2023-02-04T08:34:37;0.43;;;0.25;;
24411;SDS011;12544;46.760;15.942;2023-02-04T08:37:03;1.27;;;0.30;;
24411;SDS011;12544;46.760;15.942;2023-02-04T08:39:29;0.38;;;0.30;;
24411;SDS011;12544;46.760;15.942;2023-02-04T08:41:56;0.60;;;0.50;;
24411;SDS011;12544;46.760;15.942;2023-02-04T08:44:21;0.30;;;0.30;;
24411;SDS011;12544;46.760;15.942;2023-02-04T08:46:48;0.30;;;0.30;;
24411;SDS011;12544;46.760;15.942;2023-02-04T08:49:14;1.08;;;0.30;;
24411;SDS011;12544;46.760;15.942;2023-02-04T08:51:39;0.30;;;0.20;;
24411;SDS011;12544;46.760;15.942;2023-02-04T08:54:05;0.20;;;0.20;;
24411;SDS011;12544;46.760;15.942;2023-02-04T08:56:46;0.28;;;0.28;;
24411;SDS011;12544;46.760;15.942;2023-02-04T08:59:11;0.30;;;0.30;;
24411;SDS011;12544;46.760;15.942;2023-02-04T09:01:37;0.25;;;0.25;;
24411;SDS011;12544;46.760;15.942;2023-02-04T09:04:02;0.35;;;0.30;;
24411;SDS011;12544;46.760;15.942;2023-02-04T09:06:28;0.30;;;0.25;;
24411;SDS011;12544;46.760;15.942;2023-02-04T09:08:56;0.28;;;0.28;;
24411;SDS011;12544;46.760;15.942;2023-02-04T09:11:21;0.50;;;0.45;;
24411;SDS011;12544;46.760;15.942;2023-02-04T09:13:47;0.50;;;0.45;;
24411;SDS011;12544;46.760;15.942;2023-02-04T09:16:12;0.50;;;0.30;;
24411;SDS011;12544;46.760;15.942;2023-02-04T09:18:38;0.38;;;0.30;;
24411;SDS011;12544;46.760;15.942;2023-02-04T09:21:04;0.95;;;0.30;;
24411;SDS011;12544;46.760;15.942;2023-02-04T09:23:30;0.40;;;0.40;;
24411;SDS011;12544;46.760;15.942;2023-02-04T09:28:25;0.32;;;0.30;;
24411;SDS011;12544;46.760;15.942;2023-02-04T09:30:51;0.40;;;0.30;;
24411;SDS011;12544;46.760;15.942;2023-02-04T09:33:17;0.28;;;0.28;;
24411;SDS011;12544;46.760;15.942;2023-02-04T09:35:42;0.60;;;0.35;;
24411;SDS011;12544;46.760;15.942;2023-02-04T09:38:08;0.30;;;0.30;;
24411;SDS011;12544;46.760;15.942;2023-02-04T09:40:35;0.28;;;0.28;;
24411;SDS011;12544;46.760;15.942;2023-02-04T09:43:05;0.90;;;0.30;;
24411;SDS011;12544;46.760;15.942;2023-02-04T09:45:34;0.57;;;0.40;;
24411;SDS011;12544;46.760;15.942;2023-02-04T09:48:01;0.73;;;0.50;;
24411;SDS011;12544;46.760;15.942;2023-02-04T09:50:28;0.73;;;0.28;;
24411;SDS011;12544;46.760;15.942;2023-02-04T09:53:04;1.73;;;0.40;;
24411;SDS011;12544;46.760;15.942;2023-02-04T09:55:36;1.13;;;0.40;;
24411;SDS011;12544;46.760;15.942;2023-02-04T09:58:15;0.25;;;0.20;;
24411;SDS011;12544;46.760;15.942;2023-02-04T10:00:57;0.40;;;0.30;;
24411;SDS011;12544;46.760;15.942;2023-02-04T10:03:25;1.38;;;0.40;;
24411;SDS011;12544;46.760;15.942;2023-02-04T10:05:51;0.65;;;0.40;;
24411;SDS011;12544;46.760;15.942;2023-02-04T10:08:20;0.50;;;0.40;;
24411;SDS011;12544;46.760;15.942;2023-02-04T10:10:53;0.47;;;0.32;;
24411;SDS011;12544;46.760;15.942;2023-02-04T10:13:20;0.40;;;0.40;;
24411;SDS011;12544;46.760;15.942;2023-02-04T10:15:51;0.93;;;0.30;;
24411;SDS011;12544;46.760;15.942;2023-02-04T10:18:30;0.75;;;0.47;;
24411;SDS011;12544;46.760;15.942;2023-02-04T10:23:47;0.77;;;0.57;;
24411;SDS011;12544;46.760;15.942;2023-02-04T10:26:15;0.52;;;0.52;;
24411;SDS011;12544;46.760;15.942;2023-02-04T10:28:42;0.75;;;0.50;;
24411;SDS011;12544;46.760;15.942;2023-02-04T10:36:46;0.40;;;0.40;;
24411;SDS011;12544;46.760;15.942;2023-02-04T10:39:16;0.60;;;0.50;;
24411;SDS011;12544;46.760;15.942;2023-02-04T10:41:47;0.35;;;0.35;;
24411;SDS011;12544;46.760;15.942;2023-02-04T10:44:16;0.65;;;0.65;;
24411;SDS011;12544;46.760;15.942;2023-02-04T10:47:05;0.88;;;0.70;;
24411;SDS011;12544;46.760;15.942;2023-02-04T10:49:39;2.55;;;1.00;;
24411;SDS011;12544;46.760;15.942;2023-02-04T10:52:15;2.28;;;0.70;;
24411;SDS011;12544;46.760;15.942;2023-02-04T10:54:42;0.75;;;0.75;;
24411;SDS011;12544;46.760;15.942;2023-02-04T10:59:52;0.60;;;0.60;;
24411;SDS011;12544;46.760;15.942;2023-02-04T11:05:11;0.70;;;0.70;;
24411;SDS011;12544;46.760;15.942;2023-02-04T11:07:39;0.95;;;0.68;;
24411;SDS011;12544;46.760;15.942;2023-02-04T11:10:04;0.68;;;0.68;;
24411;SDS011;12544;46.760;15.942;2023-02-04T11:15:05;2.05;;;0.73;;
24411;SDS011;12544;46.760;15.942;2023-02-04T11:17:57;0.60;;;0.60;;
24411;SDS011;12544;46.760;15.942;2023-02-04T11:20:30;0.50;;;0.50;;
24411;SDS011;12544;46.760;15.942;2023-02-04T11:23:12;0.77;;;0.60;;
24411;SDS011;12544;46.760;15.942;2023-02-04T11:25:41;0.77;;;0.70;;
24411;SDS011;12544;46.760;15.942;2023-02-04T11:31:11;1.08;;;0.60;;
24411;SDS011;12544;46.760;15.942;2023-02-04T11:33:49;0.43;;;0.43;;
24411;SDS011;12544;46.760;15.942;2023-02-04T11:36:26;0.43;;;0.43;;
24411;SDS011;12544;46.760;15.942;2023-02-04T11:38:52;0.50;;;0.50;;
24411;SDS011;12544;46.760;15.942;2023-02-04T11:41:25;1.65;;;0.50;;
24411;SDS011;12544;46.760;15.942;2023-02-04T11:43:53;0.98;;;0.60;;
24411;SDS011;12544;46.760;15.942;2023-02-04T11:46:20;2.50;;;1.27;;
24411;SDS011;12544;46.760;15.942;2023-02-04T11:48:50;1.13;;;0.70;;
24411;SDS011;12544;46.760;15.942;2023-02-04T11:51:18;1.10;;;0.73;;
24411;SDS011;12544;46.760;15.942;2023-02-04T11:53:50;2.05;;;0.68;;
24411;SDS011;12544;46.760;15.942;2023-02-04T11:56:20;1.73;;;0.82;;
24411;SDS011;12544;46.760;15.942;2023-02-04T11:58:46;0.70;;;0.70;;
24411;SDS011;12544;46.760;15.942;2023-02-04T12:01:23;1.15;;;0.93;;
24411;SDS011;12544;46.760;15.942;2023-02-04T12:03:50;0.85;;;0.60;;
24411;SDS011;12544;46.760;15.942;2023-02-04T12:06:22;0.82;;;0.60;;
24411;SDS011;12544;46.760;15.942;2023-02-04T12:08:50;0.60;;;0.60;;
24411;SDS011;12544;46.760;15.942;2023-02-04T12:11:26;0.80;;;0.80;;
24411;SDS011;12544;46.760;15.942;2023-02-04T12:13:57;0.70;;;0.70;;
24411;SDS011;12544;46.760;15.942;2023-02-04T12:16:38;0.60;;;0.60;;
24411;SDS011;12544;46.760;15.942;2023-02-04T12:19:15;0.50;;;0.50;;
24411;SDS011;12544;46.760;15.942;2023-02-04T12:21:41;0.60;;;0.60;;
24411;SDS011;12544;46.760;15.942;2023-02-04T12:24:07;0.57;;;0.52;;
24411;SDS011;12544;46.760;15.942;2023-02-04T12:26:33;0.70;;;0.50;;
24411;SDS011;12544;46.760;15.942;2023-02-04T12:28:59;0.70;;;0.70;;
24411;SDS011;12544;46.760;15.942;2023-02-04T12:31:27;0.50;;;0.50;;
24411;SDS011;12544;46.760;15.942;2023-02-04T12:33:54;0.70;;;0.70;;
24411;SDS011;12544;46.760;15.942;2023-02-04T12:36:20;1.45;;;0.70;;
24411;SDS011;12544;46.760;15.942;2023-02-04T12:38:45;0.68;;;0.50;;
24411;SDS011;12544;46.760;15.942;2023-02-04T12:41:11;0.85;;;0.70;;
24411;SDS011;12544;46.760;15.942;2023-02-04T12:43:37;0.60;;;0.60;;
24411;SDS011;12544;46.760;15.942;2023-02-04T12:46:02;0.55;;;0.55;;
24411;SDS011;12544;46.760;15.942;2023-02-04T12:48:28;0.60;;;0.60;;
24411;SDS011;12544;46.760;15.942;2023-02-04T12:50:54;0.90;;;0.70;;
24411;SDS011;12544;46.760;15.942;2023-02-04T12:53:19;0.93;;;0.70;;
24411;SDS011;12544;46.760;15.942;2023-02-04T12:55:46;0.55;;;0.55;;
24411;SDS011;12544;46.760;15.942;2023-02-04T12:58:12;0.90;;;0.60;;
24411;SDS011;12544;46.760;15.942;2023-02-04T13:00:37;0.57;;;0.50;;
24411;SDS011;12544;46.760;15.942;2023-02-04T13:03:04;0.60;;;0.60;;
24411;SDS011;12544;46.760;15.942;2023-02-04T13:05:29;0.45;;;0.45;;
24411;SDS011;12544;46.760;15.942;2023-02-04T13:07:55;0.82;;;0.60;;
24411;SDS011;12544;46.760;15.942;2023-02-04T13:10:22;1.90;;;0.50;;
24411;SDS011;12544;46.760;15.942;2023-02-04T13:12:48;0.50;;;0.50;;
24411;SDS011;12544;46.760;15.942;2023-02-04T13:15:14;0.70;;;0.70;;
24411;SDS011;12544;46.760;15.942;2023-02-04T13:17:40;0.95;;;0.70;;
24411;SDS011;12544;46.760;15.942;2023-02-04T13:20:06;1.38;;;0.60;;
24411;SDS011;12544;46.760;15.942;2023-02-04T13:22:32;0.90;;;0.57;;
24411;SDS011;12544;46.760;15.942;2023-02-04T13:24:58;0.50;;;0.50;;
24411;SDS011;12544;46.760;15.942;2023-02-04T13:27:23;0.70;;;0.47;;
24411;SDS011;12544;46.760;15.942;2023-02-04T13:29:49;0.95;;;0.52;;
24411;SDS011;12544;46.760;15.942;2023-02-04T13:32:15;0.50;;;0.50;;
24411;SDS011;12544;46.760;15.942;2023-02-04T13:34:40;0.60;;;0.60;;
24411;SDS011;12544;46.760;15.942;2023-02-04T13:37:06;0.95;;;0.50;;
24411;SDS011;12544;46.760;15.942;2023-02-04T13:39:41;0.50;;;0.50;;
24411;SDS011;12544;46.760;15.942;2023-02-04T13:42:06;0.60;;;0.60;;
24411;SDS011;12544;46.760;15.942;2023-02-04T13:44:32;0.47;;;0.40;;
24411;SDS011;12544;46.760;15.942;2023-02-04T13:46:57;0.50;;;0.50;;
24411;SDS011;12544;46.760;15.942;2023-02-04T13:49:23;0.80;;;0.55;;
24411;SDS011;12544;46.760;15.942;2023-02-04T13:51:58;0.80;;;0.52;;
24411;SDS011;12544;46.760;15.942;2023-02-04T13:54:24;0.40;;;0.40;;
24411;SDS011;12544;46.760;15.942;2023-02-04T13:56:49;1.27;;;0.70;;
24411;SDS011;12544;46.760;15.942;2023-02-04T13:59:15;0.85;;;0.57;;
24411;SDS011;12544;46.760;15.942;2023-02-04T14:01:40;0.82;;;0.82;;
24411;SDS011;12544;46.760;15.942;2023-02-04T14:04:06;1.85;;;0.60;;
24411;SDS011;12544;46.760;15.942;2023-02-04T14:06:32;1.08;;;0.63;;
24411;SDS011;12544;46.760;15.942;2023-02-04T14:09:01;0.50;;;0.50;;
24411;SDS011;12544;46.760;15.942;2023-02-04T14:11:27;0.95;;;0.60;;
24411;SDS011;12544;46.760;15.942;2023-02-04T14:13:53;0.60;;;0.60;;
24411;SDS011;12544;46.760;15.942;2023-02-04T14:16:19;0.50;;;0.50;;
24411;SDS011;12544;46.760;15.942;2023-02-04T14:18:45;1.02;;;0.60;;
24411;SDS011;12544;46.760;15.942;2023-02-04T14:21:10;0.60;;;0.60;;
24411;SDS011;12544;46.760;15.942;2023-02-04T14:23:43;0.57;;;0.57;;
24411;SDS011;12544;46.760;15.942;2023-02-04T14:28:34;0.93;;;0.50;;
24411;SDS011;12544;46.760;15.942;2023-02-04T14:31:00;0.60;;;0.60;;
24411;SDS011;12544;46.760;15.942;2023-02-04T14:33:26;0.60;;;0.60;;
24411;SDS011;12544;46.760;15.942;2023-02-04T14:35:51;1.33;;;0.77;;
24411;SDS011;12544;46.760;15.942;2023-02-04T14:38:17;0.65;;;0.55;;
24411;SDS011;12544;46.760;15.942;2023-02-04T14:40:43;0.60;;;0.60;;
24411;SDS011;12544;46.760;15.942;2023-02-04T14:43:09;0.52;;;0.50;;
24411;SDS011;12544;46.760;15.942;2023-02-04T14:45:38;0.70;;;0.60;;
24411;SDS011;12544;46.760;15.942;2023-02-04T14:48:05;0.60;;;0.60;;
24411;SDS011;12544;46.760;15.942;2023-02-04T14:50:31;0.70;;;0.50;;
24411;SDS011;12544;46.760;15.942;2023-02-04T14:52:57;1.25;;;0.50;;
24411;SDS011;12544;46.760;15.942;2023-02-04T14:55:23;0.60;;;0.60;;
24411;SDS011;12544;46.760;15.942;2023-02-04T14:57:49;2.20;;;0.63;;
24411;SDS011;12544;46.760;15.942;2023-02-04T15:00:15;0.50;;;0.50;;
24411;SDS011;12544;46.760;15.942;2023-02-04T15:02:41;1.65;;;0.70;;
24411;SDS011;12544;46.760;15.942;2023-02-04T15:05:07;0.90;;;0.65;;